createdAt,value
2023-12-17T00:00:01.823Z,7.38
2023-12-17T00:02:31.803Z,9.13
2023-12-17T00:04:58.607Z,10.18
2023-12-17T00:07:25.451Z,9.23
2023-12-17T00:09:52.140Z,8.68
2023-12-17T00:12:18.925Z,6.90
2023-12-17T00:14:46.776Z,7.90
2023-12-17T00:17:13.589Z,8.65
2023-12-17T00:19:40.358Z,7.30
2023-12-17T00:22:07.060Z,7.88
2023-12-17T00:24:33.682Z,8.07
2023-12-17T00:27:00.356Z,8.40
2023-12-17T00:29:27.069Z,8.25
2023-12-17T00:32:00.508Z,5.45
2023-12-17T00:34:28.466Z,7.10
2023-12-17T00:36:55.348Z,5.88
2023-12-17T00:39:22.097Z,7.35
2023-12-17T00:41:48.816Z,6.25
2023-12-17T00:44:15.533Z,6.25
2023-12-17T00:46:42.160Z,7.10
2023-12-17T00:49:08.953Z,7.22
2023-12-17T00:51:35.694Z,8.07
2023-12-17T00:54:02.497Z,7.63
2023-12-17T00:56:29.492Z,7.13
2023-12-17T00:58:56.193Z,5.28
2023-12-17T01:01:22.876Z,7.00
2023-12-17T01:03:49.762Z,4.88
2023-12-17T01:06:16.588Z,5.90
2023-12-17T01:08:43.388Z,7.50
2023-12-17T01:11:10.031Z,6.13
2023-12-17T01:13:37.438Z,5.32
2023-12-17T01:16:06.202Z,6.43
2023-12-17T01:18:35.785Z,6.05
2023-12-17T01:21:03.880Z,8.10
2023-12-17T01:23:30.575Z,6.50
2023-12-17T01:25:57.270Z,7.15
2023-12-17T01:28:24.198Z,6.53
2023-12-17T01:30:51.049Z,6.60
2023-12-17T01:33:17.970Z,6.22
2023-12-17T01:35:44.892Z,6.75
2023-12-17T01:38:11.674Z,7.05
2023-12-17T01:40:40.442Z,6.63
2023-12-17T01:43:10.463Z,7.93
2023-12-17T01:45:37.195Z,9.73
2023-12-17T01:48:04.614Z,7.90
2023-12-17T01:50:31.535Z,8.00
2023-12-17T01:52:59.132Z,7.45
2023-12-17T01:55:27.069Z,6.97
2023-12-17T01:57:53.780Z,7.23
2023-12-17T02:00:20.945Z,10.38
2023-12-17T02:02:48.501Z,9.48
2023-12-17T02:05:15.850Z,7.80
2023-12-17T02:07:42.906Z,8.15
2023-12-17T02:10:10.004Z,7.87
2023-12-17T02:12:36.669Z,7.97
2023-12-17T02:15:03.577Z,9.65
2023-12-17T02:17:32.292Z,8.45
2023-12-17T02:19:59.314Z,8.60
2023-12-17T02:22:27.089Z,9.90
2023-12-17T02:24:54.497Z,9.10
2023-12-17T02:27:26.153Z,11.55
2023-12-17T02:29:54.911Z,12.60
2023-12-17T02:32:23.334Z,13.02
2023-12-17T02:34:51.482Z,11.47
2023-12-17T02:37:18.980Z,11.98
2023-12-17T02:39:45.842Z,11.90
2023-12-17T02:42:12.558Z,10.50
2023-12-17T02:44:39.278Z,10.48
2023-12-17T02:47:05.899Z,10.07
2023-12-17T02:49:36.500Z,10.90
2023-12-17T02:52:03.186Z,10.63
2023-12-17T02:54:30.765Z,10.93
2023-12-17T02:56:57.617Z,9.40
2023-12-17T02:59:24.619Z,13.00
2023-12-17T03:01:52.195Z,9.15
2023-12-17T03:04:19.071Z,11.00
2023-12-17T03:06:45.847Z,7.57
2023-12-17T03:09:12.617Z,8.73
2023-12-17T03:11:39.777Z,11.13
2023-12-17T03:14:06.944Z,13.18
2023-12-17T03:16:33.660Z,8.52
2023-12-17T03:19:00.616Z,9.75
2023-12-17T03:21:30.328Z,9.95
2023-12-17T03:23:57.144Z,7.43
2023-12-17T03:26:23.966Z,8.85
2023-12-17T03:28:50.782Z,8.95
2023-12-17T03:31:17.952Z,10.55
2023-12-17T03:33:46.218Z,8.93
2023-12-17T03:36:15.683Z,8.13
2023-12-17T03:38:46.720Z,8.85
2023-12-17T03:41:27.121Z,8.40
2023-12-17T03:43:55.827Z,8.63
2023-12-17T03:46:23.781Z,7.90
2023-12-17T03:48:50.995Z,7.23
2023-12-17T03:51:18.553Z,7.90
2023-12-17T03:53:45.421Z,6.25
2023-12-17T03:56:16.195Z,6.78
2023-12-17T03:58:43.888Z,6.57
2023-12-17T04:01:11.176Z,6.87
2023-12-17T04:03:38.411Z,6.18
2023-12-17T04:06:07.085Z,6.50
2023-12-17T04:08:34.457Z,8.23
2023-12-17T04:11:01.145Z,6.70
2023-12-17T04:13:28.102Z,9.33
2023-12-17T04:15:54.821Z,9.40
2023-12-17T04:18:22.155Z,10.70
2023-12-17T04:20:49.111Z,8.63
2023-12-17T04:23:16.386Z,8.18
2023-12-17T04:25:43.054Z,8.20
2023-12-17T04:28:09.735Z,8.95
2023-12-17T04:30:36.560Z,8.63
2023-12-17T04:33:04.602Z,8.55
2023-12-17T04:35:31.392Z,8.30
2023-12-17T04:37:58.110Z,7.90
2023-12-17T04:40:24.853Z,9.15
2023-12-17T04:42:51.476Z,10.70
2023-12-17T04:45:18.269Z,8.50
2023-12-17T04:47:45.484Z,9.23
2023-12-17T04:50:12.351Z,13.07
2023-12-17T04:52:38.925Z,9.50
2023-12-17T04:55:06.437Z,11.85
2023-12-17T04:57:33.229Z,10.82
2023-12-17T05:00:02.306Z,11.65
2023-12-17T05:02:29.181Z,15.70
2023-12-17T05:04:56.105Z,11.68
2023-12-17T05:07:22.955Z,12.77
2023-12-17T05:09:49.696Z,11.70
2023-12-17T05:12:16.481Z,10.45
2023-12-17T05:14:43.367Z,10.57
2023-12-17T05:17:10.475Z,12.35
2023-12-17T05:19:37.205Z,13.05
2023-12-17T05:22:04.256Z,11.85
2023-12-17T05:24:31.013Z,13.07
2023-12-17T05:26:57.731Z,14.13
2023-12-17T05:29:24.578Z,12.77
2023-12-17T05:31:51.232Z,13.15
2023-12-17T05:34:18.266Z,12.75
2023-12-17T05:36:44.999Z,14.80
2023-12-17T05:39:11.690Z,13.80
2023-12-17T05:41:38.390Z,14.23
2023-12-17T05:44:05.078Z,13.32
2023-12-17T05:46:31.835Z,15.38
2023-12-17T05:48:58.706Z,15.82
2023-12-17T05:51:25.512Z,19.43
2023-12-17T05:53:52.166Z,16.45
2023-12-17T05:56:18.864Z,15.43
2023-12-17T05:58:46.422Z,12.32
2023-12-17T06:01:13.407Z,13.30
2023-12-17T06:03:40.388Z,12.97
2023-12-17T06:06:08.903Z,12.57
2023-12-17T06:08:35.771Z,14.75
2023-12-17T06:11:02.499Z,11.77
2023-12-17T06:13:30.189Z,12.90
2023-12-17T06:15:57.074Z,10.77
2023-12-17T06:18:23.935Z,10.45
2023-12-17T06:20:50.846Z,12.55
2023-12-17T06:23:17.565Z,10.73
2023-12-17T06:25:44.645Z,11.75
2023-12-17T06:28:11.347Z,10.93
2023-12-17T06:30:38.699Z,11.10
2023-12-17T06:33:05.576Z,11.65
2023-12-17T06:35:33.034Z,10.05
2023-12-17T06:37:59.765Z,12.00
2023-12-17T06:40:26.454Z,10.90
2023-12-17T06:42:53.113Z,7.93
2023-12-17T06:45:19.912Z,10.07
2023-12-17T06:47:47.140Z,10.85
2023-12-17T06:50:14.482Z,11.80
2023-12-17T06:52:41.115Z,14.67
2023-12-17T06:55:08.550Z,13.10
2023-12-17T06:57:35.254Z,11.60
2023-12-17T07:00:03.221Z,13.85
2023-12-17T07:02:30.234Z,10.82
2023-12-17T07:04:57.002Z,12.97
2023-12-17T07:07:23.688Z,14.23
2023-12-17T07:09:50.334Z,13.00
2023-12-17T07:12:17.039Z,13.00
2023-12-17T07:14:43.697Z,16.92
2023-12-17T07:17:10.310Z,13.00
2023-12-17T07:19:37.143Z,15.50
2023-12-17T07:22:03.957Z,14.90
2023-12-17T07:24:30.553Z,16.48
2023-12-17T07:26:57.263Z,18.20
2023-12-17T07:29:23.944Z,16.23
2023-12-17T07:31:52.109Z,14.20
2023-12-17T07:34:21.426Z,10.57
2023-12-17T07:36:48.709Z,10.25
2023-12-17T07:39:15.457Z,6.93
2023-12-17T07:41:42.206Z,10.10
2023-12-17T07:44:08.897Z,11.30
2023-12-17T07:46:35.584Z,12.65
2023-12-17T07:49:02.431Z,14.07
2023-12-17T07:51:29.286Z,11.43
2023-12-17T07:53:56.047Z,10.50
2023-12-17T07:56:23.585Z,9.73
2023-12-17T07:58:50.368Z,10.82
2023-12-17T08:01:19.857Z,11.50
2023-12-17T08:03:47.606Z,10.85
2023-12-17T08:06:15.283Z,10.33
2023-12-17T08:08:42.153Z,10.68
2023-12-17T08:11:13.444Z,8.82
2023-12-17T08:13:40.440Z,12.23
2023-12-17T08:16:07.537Z,11.18
2023-12-17T08:18:34.835Z,10.07
2023-12-17T08:21:02.832Z,9.00
2023-12-17T08:23:30.193Z,6.40
2023-12-17T08:25:57.001Z,6.72
2023-12-17T08:28:24.567Z,8.45
2023-12-17T08:30:51.437Z,6.77
2023-12-17T08:33:18.434Z,6.07
2023-12-17T08:35:46.495Z,8.27
2023-12-17T08:38:13.461Z,5.90
2023-12-17T08:40:41.943Z,8.32
2023-12-17T08:43:09.709Z,7.82
2023-12-17T08:45:37.044Z,7.38
2023-12-17T08:48:04.930Z,6.70
2023-12-17T08:50:31.695Z,7.35
2023-12-17T08:52:58.336Z,6.78
2023-12-17T08:55:25.877Z,6.85
2023-12-17T08:57:54.085Z,6.43
2023-12-17T09:00:21.345Z,7.00
2023-12-17T09:02:48.208Z,9.10
2023-12-17T09:05:14.993Z,6.30
2023-12-17T09:07:42.271Z,6.90
2023-12-17T09:10:09.214Z,7.30
2023-12-17T09:12:35.991Z,6.70
2023-12-17T09:15:02.834Z,7.13
2023-12-17T09:17:29.608Z,7.18
2023-12-17T09:19:56.378Z,8.13
2023-12-17T09:22:23.074Z,7.57
2023-12-17T09:24:50.181Z,6.10
2023-12-17T09:27:17.451Z,6.22
2023-12-17T09:29:44.299Z,6.68
2023-12-17T09:32:11.264Z,7.25
2023-12-17T09:34:38.061Z,6.60
2023-12-17T09:37:05.011Z,7.25
2023-12-17T09:39:31.833Z,6.03
2023-12-17T09:41:58.980Z,7.47
2023-12-17T09:44:27.481Z,5.43
2023-12-17T09:46:54.390Z,7.43
2023-12-17T09:49:21.823Z,6.97
2023-12-17T09:51:56.296Z,6.82
2023-12-17T09:54:22.983Z,7.28
2023-12-17T09:56:49.790Z,5.82
2023-12-17T09:59:16.444Z,6.75
2023-12-17T10:01:43.193Z,5.28
2023-12-17T10:04:09.978Z,5.80
2023-12-17T10:06:36.808Z,6.45
2023-12-17T10:09:05.949Z,6.53
2023-12-17T10:11:33.211Z,6.32
2023-12-17T10:14:01.822Z,6.65
2023-12-17T10:16:28.506Z,5.10
2023-12-17T10:18:55.474Z,7.05
2023-12-17T10:21:23.570Z,5.05
2023-12-17T10:23:51.157Z,7.32
2023-12-17T10:26:18.327Z,5.35
2023-12-17T10:28:47.753Z,7.60
2023-12-17T10:31:18.734Z,6.10
2023-12-17T10:34:06.293Z,6.60
2023-12-17T10:36:33.331Z,6.30
2023-12-17T10:39:02.189Z,6.78
2023-12-17T10:41:30.868Z,8.52
2023-12-17T10:43:59.996Z,6.22
2023-12-17T10:46:27.694Z,9.10
2023-12-17T10:48:54.518Z,7.65
2023-12-17T10:51:23.692Z,6.75
2023-12-17T10:53:50.473Z,6.40
2023-12-17T10:56:18.648Z,6.75
2023-12-17T10:58:47.202Z,6.50
2023-12-17T11:01:15.006Z,6.55
2023-12-17T11:03:42.552Z,6.47
2023-12-17T11:06:09.608Z,5.57
2023-12-17T11:08:37.391Z,6.03
2023-12-17T11:11:04.668Z,6.35
2023-12-17T11:13:31.478Z,7.55
2023-12-17T11:15:58.188Z,6.85
2023-12-17T11:18:42.120Z,5.78
2023-12-17T11:21:09.222Z,6.28
2023-12-17T11:23:35.827Z,6.50
2023-12-17T11:26:02.668Z,7.07
2023-12-17T11:28:31.155Z,7.90
2023-12-17T11:30:59.471Z,6.32
2023-12-17T11:33:29.153Z,8.60
2023-12-17T11:35:56.377Z,8.27
2023-12-17T11:38:23.252Z,6.75
2023-12-17T11:40:50.153Z,8.82
2023-12-17T11:43:16.916Z,7.63
2023-12-17T11:45:48.051Z,6.57
2023-12-17T11:48:19.394Z,7.45
2023-12-17T11:51:05.415Z,5.82
2023-12-17T11:53:32.064Z,6.38
2023-12-17T11:56:02.649Z,6.57
2023-12-17T11:58:30.294Z,6.72
2023-12-17T12:01:04.883Z,6.78
2023-12-17T12:03:32.122Z,8.10
2023-12-17T12:06:08.303Z,6.97
2023-12-17T12:08:55.953Z,5.78
2023-12-17T12:11:31.582Z,7.82
2023-12-17T12:13:58.273Z,7.55
2023-12-17T12:16:26.231Z,6.25
2023-12-17T12:19:04.371Z,6.78
2023-12-17T12:21:31.469Z,7.30
2023-12-17T12:23:58.975Z,7.63
2023-12-17T12:26:26.245Z,7.03
2023-12-17T12:29:00.572Z,7.90
2023-12-17T12:31:28.715Z,7.57
2023-12-17T12:34:01.268Z,7.15
2023-12-17T12:36:53.244Z,7.95
2023-12-17T12:39:20.754Z,6.88
2023-12-17T12:41:49.112Z,8.60
2023-12-17T12:44:17.389Z,7.00
2023-12-17T12:46:47.200Z,8.38
2023-12-17T12:49:14.123Z,8.10
2023-12-17T12:51:41.065Z,6.85
2023-12-17T12:54:07.847Z,7.88
2023-12-17T12:56:36.485Z,7.03
2023-12-17T12:59:03.356Z,7.30
2023-12-17T13:01:30.153Z,8.32
2023-12-17T13:03:57.241Z,7.90
2023-12-17T13:06:25.797Z,7.80
2023-12-17T13:08:52.653Z,7.07
2023-12-17T13:11:19.470Z,6.93
2023-12-17T13:13:47.129Z,7.13
2023-12-17T13:16:13.828Z,7.90
2023-12-17T13:18:40.652Z,7.75
2023-12-17T13:21:07.719Z,7.20
2023-12-17T13:23:34.876Z,6.30
2023-12-17T13:26:07.177Z,9.48
2023-12-17T13:28:39.812Z,8.25
2023-12-17T13:31:08.634Z,7.70
2023-12-17T13:33:35.638Z,8.10
2023-12-17T13:36:04.863Z,6.97
2023-12-17T13:38:31.836Z,8.32
2023-12-17T13:40:58.452Z,8.20
2023-12-17T13:43:25.108Z,8.82
2023-12-17T13:45:51.730Z,7.97
2023-12-17T13:48:18.552Z,8.93
2023-12-17T13:50:46.204Z,11.55
2023-12-17T13:53:15.257Z,9.02
2023-12-17T13:55:42.989Z,9.30
2023-12-17T13:58:09.705Z,8.20
2023-12-17T14:00:36.534Z,8.65
2023-12-17T14:03:04.797Z,8.85
2023-12-17T14:05:31.533Z,8.32
2023-12-17T14:08:01.599Z,10.00
2023-12-17T14:10:29.589Z,8.88
2023-12-17T14:12:56.288Z,7.85
2023-12-17T14:15:24.368Z,8.90
2023-12-17T14:17:51.241Z,7.30
2023-12-17T14:20:23.227Z,8.10
2023-12-17T14:22:52.278Z,6.97
2023-12-17T14:25:20.024Z,6.20
2023-12-17T14:27:47.232Z,6.28
2023-12-17T14:30:17.760Z,6.90
2023-12-17T14:32:44.767Z,8.50
2023-12-17T14:35:11.928Z,6.72
2023-12-17T14:37:39.088Z,6.97
2023-12-17T14:40:09.259Z,10.52
2023-12-17T14:42:37.887Z,11.85
2023-12-17T14:45:06.428Z,11.65
2023-12-17T14:47:33.488Z,14.25
2023-12-17T14:50:00.399Z,11.70
2023-12-17T14:52:27.089Z,10.95
2023-12-17T14:54:53.747Z,11.98
2023-12-17T14:57:20.378Z,12.25
2023-12-17T14:59:46.997Z,12.55
2023-12-17T15:02:14.897Z,19.50
2023-12-17T15:04:41.623Z,13.02
2023-12-17T15:07:09.215Z,11.95
2023-12-17T15:09:36.091Z,13.93
2023-12-17T15:12:04.877Z,19.95
2023-12-17T15:14:31.572Z,13.48
2023-12-17T15:16:58.384Z,15.10
2023-12-17T15:19:26.110Z,15.55
2023-12-17T15:21:52.961Z,17.00
2023-12-17T15:24:19.731Z,16.70
2023-12-17T15:26:46.400Z,20.15
2023-12-17T15:29:14.302Z,19.30
2023-12-17T15:31:41.019Z,17.15
2023-12-17T15:34:08.045Z,22.00
2023-12-17T15:36:41.534Z,18.33
2023-12-17T15:39:08.355Z,18.95
2023-12-17T15:41:34.999Z,18.23
2023-12-17T15:44:01.673Z,14.18
2023-12-17T15:46:30.101Z,11.27
2023-12-17T15:48:58.306Z,14.05
2023-12-17T15:51:26.316Z,12.57
2023-12-17T15:53:55.189Z,12.98
2023-12-17T15:56:23.197Z,11.45
2023-12-17T15:58:50.741Z,12.15
2023-12-17T16:01:19.318Z,12.43
2023-12-17T16:03:46.342Z,11.75
2023-12-17T16:06:13.421Z,11.50
2023-12-17T16:08:40.716Z,15.07
2023-12-17T16:11:08.410Z,10.75
2023-12-17T16:13:35.860Z,12.35
2023-12-17T16:16:02.841Z,10.95
2023-12-17T16:18:29.776Z,15.02
2023-12-17T16:20:56.978Z,19.58
2023-12-17T16:23:23.781Z,18.77
2023-12-17T16:25:50.437Z,21.27
2023-12-17T16:28:17.252Z,18.02
2023-12-17T16:30:45.447Z,20.80
2023-12-17T16:33:14.299Z,17.48
2023-12-17T16:35:41.455Z,17.95
2023-12-17T16:38:08.156Z,14.63
2023-12-17T16:40:34.846Z,14.43
2023-12-17T16:43:05.577Z,14.50
2023-12-17T16:45:32.345Z,11.83
2023-12-17T16:47:59.201Z,15.10
2023-12-17T16:50:26.721Z,10.45
2023-12-17T16:52:53.425Z,10.63
2023-12-17T16:55:20.531Z,11.18
2023-12-17T16:57:48.278Z,11.38
2023-12-17T17:00:15.719Z,11.90
2023-12-17T17:02:42.592Z,11.15
2023-12-17T17:05:09.629Z,11.55
2023-12-17T17:07:36.486Z,19.52
2023-12-17T17:10:03.691Z,12.47
2023-12-17T17:12:30.487Z,14.98
2023-12-17T17:14:57.500Z,12.88
2023-12-17T17:17:24.217Z,12.43
2023-12-17T17:19:53.923Z,11.88
2023-12-17T17:22:20.493Z,11.43
2023-12-17T17:24:47.334Z,13.50
2023-12-17T17:27:14.891Z,12.75
2023-12-17T17:29:41.581Z,15.10
2023-12-17T17:32:08.531Z,24.67
2023-12-17T17:34:36.029Z,38.13
2023-12-17T17:37:02.886Z,36.65
2023-12-17T17:39:29.682Z,35.30
2023-12-17T17:41:56.444Z,31.13
2023-12-17T17:44:24.173Z,21.88
2023-12-17T17:46:50.889Z,21.35
2023-12-17T17:49:22.547Z,16.73
2023-12-17T17:51:50.081Z,17.40
2023-12-17T17:54:17.729Z,18.58
2023-12-17T17:56:47.029Z,18.73
2023-12-17T17:59:13.993Z,17.07
2023-12-17T18:01:40.677Z,15.90
2023-12-17T18:04:07.411Z,21.48
2023-12-17T18:06:34.294Z,15.77
2023-12-17T18:09:01.080Z,20.77
2023-12-17T18:11:27.826Z,20.63
2023-12-17T18:13:55.517Z,26.17
2023-12-17T18:16:23.200Z,31.35
2023-12-17T18:18:53.330Z,29.25
2023-12-17T18:21:22.976Z,25.60
2023-12-17T18:23:50.542Z,19.90
2023-12-17T18:26:24.306Z,21.20
2023-12-17T18:28:54.062Z,21.40
2023-12-17T18:31:20.815Z,18.30
2023-12-17T18:33:47.813Z,18.20
2023-12-17T18:36:14.808Z,17.63
2023-12-17T18:38:46.308Z,13.30
2023-12-17T18:41:14.278Z,13.25
2023-12-17T18:43:41.917Z,15.63
2023-12-17T18:46:15.507Z,14.32
2023-12-17T18:48:43.676Z,16.87
2023-12-17T18:51:10.939Z,15.98
2023-12-17T18:53:39.453Z,15.40
2023-12-17T18:56:06.504Z,18.88
2023-12-17T18:58:33.438Z,22.15
2023-12-17T19:01:00.276Z,19.50
2023-12-17T19:03:27.197Z,20.77
2023-12-17T19:05:54.153Z,18.33
2023-12-17T19:08:20.866Z,17.95
2023-12-17T19:10:47.791Z,16.95
2023-12-17T19:13:14.593Z,14.63
2023-12-17T19:15:43.518Z,17.15
2023-12-17T19:18:10.448Z,17.05
2023-12-17T19:20:37.376Z,18.33
2023-12-17T19:23:04.142Z,16.25
2023-12-17T19:25:30.768Z,18.13
2023-12-17T19:27:57.433Z,17.83
2023-12-17T19:30:24.142Z,14.05
2023-12-17T19:32:50.965Z,16.23
2023-12-17T19:35:17.922Z,18.10
2023-12-17T19:37:44.596Z,15.03
2023-12-17T19:40:14.490Z,18.90
2023-12-17T19:42:41.933Z,15.40
2023-12-17T19:45:09.151Z,15.80
2023-12-17T19:47:35.840Z,11.70
2023-12-17T19:50:05.648Z,11.90
2023-12-17T19:52:32.828Z,10.10
2023-12-17T19:54:59.830Z,11.48
2023-12-17T19:57:26.577Z,12.65
2023-12-17T19:59:53.277Z,13.02
2023-12-17T20:02:21.155Z,11.40
2023-12-17T20:04:49.428Z,12.77
2023-12-17T20:07:16.458Z,14.43
2023-12-17T20:09:43.338Z,11.25
2023-12-17T20:12:10.449Z,13.07
2023-12-17T20:14:37.355Z,13.10
2023-12-17T20:17:04.921Z,13.85
2023-12-17T20:19:31.819Z,17.10
2023-12-17T20:21:58.643Z,18.48
2023-12-17T20:24:25.580Z,22.20
2023-12-17T20:26:52.317Z,18.63
2023-12-17T20:29:18.984Z,19.90
2023-12-17T20:31:45.792Z,18.23
2023-12-17T20:34:12.568Z,17.80
2023-12-17T20:36:40.198Z,15.25
2023-12-17T20:39:07.212Z,16.73
2023-12-17T20:41:33.976Z,15.38
2023-12-17T20:44:00.889Z,19.15
2023-12-17T20:46:28.831Z,22.85
2023-12-17T20:48:55.704Z,18.10
2023-12-17T20:51:22.510Z,17.87
2023-12-17T20:53:49.137Z,16.92
2023-12-17T20:56:15.885Z,17.48
2023-12-17T20:58:42.694Z,14.18
2023-12-17T21:01:09.454Z,16.50
2023-12-17T21:03:36.241Z,13.13
2023-12-17T21:06:03.184Z,13.10
2023-12-17T21:08:29.898Z,12.13
2023-12-17T21:10:56.552Z,12.02
2023-12-17T21:13:23.264Z,9.73
2023-12-17T21:15:49.926Z,10.87
2023-12-17T21:18:16.783Z,9.25
2023-12-17T21:20:43.686Z,10.13
2023-12-17T21:23:10.400Z,8.48
2023-12-17T21:25:37.709Z,9.52
2023-12-17T21:28:05.362Z,10.03
2023-12-17T21:30:32.186Z,8.15
2023-12-17T21:32:59.519Z,9.77
2023-12-17T21:35:26.287Z,10.27
2023-12-17T21:37:52.989Z,7.97
2023-12-17T21:40:21.022Z,7.80
2023-12-17T21:42:47.708Z,8.45
2023-12-17T21:45:14.507Z,9.55
2023-12-17T21:47:41.593Z,7.90
2023-12-17T21:50:09.239Z,8.20
2023-12-17T21:52:36.158Z,8.87
2023-12-17T21:55:04.774Z,9.20
2023-12-17T21:57:40.923Z,9.40
2023-12-17T22:00:18.173Z,8.88
2023-12-17T22:02:46.019Z,13.90
2023-12-17T22:05:13.124Z,9.60
2023-12-17T22:07:40.224Z,8.32
2023-12-17T22:10:08.143Z,10.65
2023-12-17T22:12:35.089Z,7.43
2023-12-17T22:15:03.137Z,8.80
2023-12-17T22:17:29.957Z,10.60
2023-12-17T22:19:56.663Z,7.82
2023-12-17T22:22:24.039Z,9.00
2023-12-17T22:24:50.853Z,8.45
2023-12-17T22:27:17.629Z,10.30
2023-12-17T22:29:44.270Z,9.40
2023-12-17T22:32:11.003Z,9.80
2023-12-17T22:34:37.673Z,9.90
2023-12-17T22:37:04.539Z,9.18
2023-12-17T22:39:31.272Z,9.40
2023-12-17T22:41:58.027Z,9.37
2023-12-17T22:44:24.948Z,10.25
2023-12-17T22:46:51.613Z,10.02
2023-12-17T22:49:18.404Z,8.88
2023-12-17T22:51:45.134Z,8.90
2023-12-17T22:54:11.744Z,10.97
2023-12-17T22:56:38.938Z,8.77
2023-12-17T22:59:07.190Z,11.20
2023-12-17T23:01:34.896Z,11.13
2023-12-17T23:04:01.700Z,12.35
2023-12-17T23:06:31.289Z,10.37
2023-12-17T23:08:58.192Z,10.57
2023-12-17T23:11:24.886Z,11.32
2023-12-17T23:13:54.220Z,9.32
2023-12-17T23:16:20.923Z,9.77
2023-12-17T23:18:47.662Z,10.47
2023-12-17T23:21:14.563Z,8.77
2023-12-17T23:23:41.330Z,8.88
2023-12-17T23:26:08.293Z,10.63
2023-12-17T23:28:35.061Z,11.07
2023-12-17T23:31:01.739Z,10.43
2023-12-17T23:33:28.517Z,10.40
2023-12-17T23:35:56.654Z,9.20
2023-12-17T23:38:23.335Z,12.05
2023-12-17T23:40:50.014Z,10.38
2023-12-17T23:43:16.762Z,10.03
2023-12-17T23:45:43.584Z,9.23
2023-12-17T23:48:11.983Z,10.30
2023-12-17T23:50:38.828Z,10.40
2023-12-17T23:53:05.438Z,12.00
2023-12-17T23:55:32.119Z,12.30
2023-12-17T23:57:58.880Z,13.82
